createdAt,value
2022-08-26T00:00:35.321Z,10.67
2022-08-26T00:03:39.244Z,11.07
2022-08-26T00:06:42.630Z,11.93
2022-08-26T00:09:49.962Z,11.50
2022-08-26T00:12:52.882Z,11.10
2022-08-26T00:15:54.932Z,10.70
2022-08-26T00:18:59.177Z,11.43
2022-08-26T00:22:00.885Z,11.77
2022-08-26T00:25:03.341Z,11.13
2022-08-26T00:28:06.756Z,12.50
2022-08-26T00:31:12.047Z,11.00
2022-08-26T00:34:15.234Z,11.23
2022-08-26T00:37:17.172Z,11.27
2022-08-26T00:40:32.892Z,11.90
2022-08-26T00:43:47.324Z,11.63
2022-08-26T00:46:53.941Z,12.13
2022-08-26T00:49:56.648Z,11.90
2022-08-26T00:53:01.588Z,11.90
2022-08-26T00:56:31.709Z,11.40
2022-08-26T00:59:33.558Z,12.63
2022-08-26T01:02:35.963Z,11.47
2022-08-26T01:05:41.924Z,11.80
2022-08-26T01:08:44.655Z,11.70
2022-08-26T01:11:49.432Z,12.50
2022-08-26T01:14:51.645Z,10.93
2022-08-26T01:17:53.983Z,11.37
2022-08-26T01:20:57.787Z,11.70
2022-08-26T01:23:59.982Z,10.80
2022-08-26T01:27:05.116Z,11.27
2022-08-26T01:30:07.499Z,12.03
2022-08-26T01:33:15.816Z,11.10
2022-08-26T01:36:18.056Z,12.37
2022-08-26T01:39:22.497Z,11.53
2022-08-26T01:42:25.881Z,10.90
2022-08-26T01:45:30.602Z,11.87
2022-08-26T01:48:35.273Z,11.30
2022-08-26T01:51:40.260Z,11.77
2022-08-26T01:54:42.522Z,11.63
2022-08-26T01:57:51.992Z,12.23
2022-08-26T02:01:01.456Z,11.77
2022-08-26T02:04:27.127Z,11.60
2022-08-26T02:07:29.334Z,11.93
2022-08-26T02:10:31.143Z,11.20
2022-08-26T02:13:37.723Z,11.10
2022-08-26T02:16:43.278Z,12.27
2022-08-26T02:19:48.481Z,13.00
2022-08-26T02:22:50.179Z,11.57
2022-08-26T02:26:08.404Z,12.13
2022-08-26T02:29:35.477Z,12.13
2022-08-26T02:32:37.721Z,12.03
2022-08-26T02:35:41.997Z,12.47
2022-08-26T02:38:43.667Z,12.47
2022-08-26T02:41:47.873Z,12.00
2022-08-26T02:44:50.129Z,11.87
2022-08-26T02:47:52.540Z,11.67
2022-08-26T02:50:55.082Z,12.40
2022-08-26T02:53:57.140Z,11.70
2022-08-26T02:56:59.182Z,11.67
2022-08-26T03:00:01.926Z,12.13
2022-08-26T03:03:05.081Z,11.57
2022-08-26T03:06:06.880Z,12.83
2022-08-26T03:09:10.376Z,12.27
2022-08-26T03:12:20.354Z,12.20
2022-08-26T03:15:22.071Z,11.93
2022-08-26T03:18:23.732Z,12.40
2022-08-26T03:21:25.634Z,12.00
2022-08-26T03:24:27.311Z,11.97
2022-08-26T03:27:29.030Z,11.90
2022-08-26T03:30:45.449Z,12.37
2022-08-26T03:33:48.034Z,12.60
2022-08-26T03:36:51.236Z,12.30
2022-08-26T03:39:52.987Z,12.50
2022-08-26T03:42:55.515Z,11.77
2022-08-26T03:45:57.205Z,14.87
2022-08-26T03:49:00.307Z,13.87
2022-08-26T03:52:03.938Z,13.07
2022-08-26T03:55:07.568Z,12.60
2022-08-26T03:58:09.217Z,12.10
2022-08-26T04:01:12.457Z,11.97
2022-08-26T04:04:15.665Z,12.87
2022-08-26T04:07:17.949Z,15.33
2022-08-26T04:10:29.019Z,17.63
2022-08-26T04:13:31.755Z,13.93
2022-08-26T04:16:34.099Z,12.50
2022-08-26T04:19:36.808Z,13.63
2022-08-26T04:22:38.479Z,13.67
2022-08-26T04:25:40.611Z,13.47
2022-08-26T04:28:42.297Z,16.30
2022-08-26T04:31:44.380Z,13.90
2022-08-26T04:34:46.016Z,13.23
2022-08-26T04:37:49.316Z,12.67
2022-08-26T04:40:50.973Z,13.23
2022-08-26T04:43:53.440Z,14.80
2022-08-26T04:46:56.464Z,13.90
2022-08-26T04:49:58.184Z,13.47
2022-08-26T04:53:00.162Z,13.80
2022-08-26T04:56:03.205Z,13.53
2022-08-26T04:59:16.801Z,12.80
2022-08-26T05:02:19.308Z,16.10
2022-08-26T05:05:21.051Z,16.30
2022-08-26T05:08:24.216Z,15.30
2022-08-26T05:11:26.542Z,13.67
2022-08-26T05:14:28.443Z,13.90
2022-08-26T05:17:30.184Z,12.73
2022-08-26T05:20:35.099Z,15.00
2022-08-26T05:23:37.038Z,14.73
2022-08-26T05:26:39.126Z,14.50
2022-08-26T05:29:41.195Z,17.87
2022-08-26T05:32:43.378Z,16.57
2022-08-26T05:35:46.013Z,14.27
2022-08-26T05:38:48.663Z,15.03
2022-08-26T05:41:50.693Z,18.30
2022-08-26T05:44:54.111Z,13.50
2022-08-26T05:47:57.904Z,12.33
2022-08-26T05:51:04.908Z,12.23
2022-08-26T05:54:10.503Z,11.90
2022-08-26T05:57:13.760Z,12.10
2022-08-26T06:00:18.407Z,11.03
2022-08-26T06:03:20.066Z,11.40
2022-08-26T06:06:27.581Z,12.17
2022-08-26T06:09:31.419Z,12.40
2022-08-26T06:12:34.298Z,10.87
2022-08-26T06:15:42.007Z,11.20
2022-08-26T06:18:45.932Z,11.47
2022-08-26T06:21:54.097Z,11.23
2022-08-26T06:25:15.076Z,11.33
2022-08-26T06:28:17.265Z,9.93
2022-08-26T06:31:19.761Z,12.93
2022-08-26T06:34:23.210Z,12.20
2022-08-26T06:37:28.389Z,10.43
2022-08-26T06:40:31.116Z,10.37
2022-08-26T06:43:33.144Z,10.70
2022-08-26T06:46:35.317Z,10.20
2022-08-26T06:49:37.256Z,10.03
2022-08-26T06:52:42.478Z,9.73
2022-08-26T06:55:46.119Z,9.90
2022-08-26T06:58:48.360Z,8.97
2022-08-26T07:01:50.453Z,10.57
2022-08-26T07:04:52.522Z,9.60
2022-08-26T07:07:58.657Z,9.93
2022-08-26T07:11:25.021Z,9.53
2022-08-26T07:14:27.457Z,9.27
2022-08-26T07:17:29.338Z,10.30
2022-08-26T07:20:31.409Z,9.87
2022-08-26T07:23:34.537Z,10.93
2022-08-26T07:26:36.226Z,11.63
2022-08-26T07:29:41.743Z,11.10
2022-08-26T07:32:43.454Z,15.67
2022-08-26T07:35:45.446Z,11.20
2022-08-26T07:38:48.200Z,10.07
2022-08-26T07:41:51.033Z,8.95
2022-08-26T07:44:52.756Z,8.95
2022-08-26T07:47:54.736Z,9.57
2022-08-26T07:50:56.815Z,8.30
2022-08-26T07:53:59.589Z,8.63
2022-08-26T07:57:01.538Z,8.68
2022-08-26T08:00:10.039Z,9.63
2022-08-26T08:03:12.161Z,9.90
2022-08-26T08:06:15.813Z,9.63
2022-08-26T08:09:24.098Z,10.35
2022-08-26T08:12:26.240Z,9.52
2022-08-26T08:15:43.452Z,10.07
2022-08-26T08:18:45.692Z,8.65
2022-08-26T08:21:47.964Z,9.82
2022-08-26T08:24:53.070Z,11.07
2022-08-26T08:27:57.036Z,9.48
2022-08-26T08:30:59.069Z,10.15
2022-08-26T08:34:01.804Z,8.90
2022-08-26T08:37:10.845Z,9.10
2022-08-26T08:40:18.087Z,8.73
2022-08-26T08:43:47.319Z,9.23
2022-08-26T08:46:53.019Z,7.90
2022-08-26T08:49:58.630Z,7.75
2022-08-26T08:53:11.332Z,8.45
2022-08-26T08:56:35.845Z,8.60
2022-08-26T08:59:53.217Z,8.35
2022-08-26T09:03:09.916Z,8.82
2022-08-26T09:06:17.364Z,8.30
2022-08-26T09:09:43.827Z,7.82
2022-08-26T09:12:48.103Z,8.55
2022-08-26T09:16:02.148Z,8.63
2022-08-26T09:19:25.620Z,8.15
2022-08-26T09:22:33.197Z,8.80
2022-08-26T09:26:04.911Z,8.52
2022-08-26T09:32:25.384Z,8.88
2022-08-26T09:35:34.000Z,9.15
2022-08-26T09:38:35.909Z,8.55
2022-08-26T09:41:37.950Z,7.93
2022-08-26T09:45:02.883Z,9.93
2022-08-26T09:48:06.477Z,8.77
2022-08-26T09:51:23.366Z,8.88
2022-08-26T09:54:30.482Z,8.70
2022-08-26T09:57:36.452Z,8.73
2022-08-26T10:00:55.630Z,8.38
2022-08-26T10:04:14.009Z,9.10
2022-08-26T10:07:42.090Z,8.07
2022-08-26T10:10:45.306Z,8.73
2022-08-26T10:14:04.211Z,8.45
2022-08-26T10:17:12.022Z,8.50
2022-08-26T10:20:26.407Z,8.13
2022-08-26T10:23:31.052Z,8.75
2022-08-26T10:26:53.285Z,8.57
2022-08-26T10:30:06.414Z,8.50
2022-08-26T10:33:12.297Z,8.00
2022-08-26T10:36:47.183Z,8.35
2022-08-26T10:40:12.810Z,8.43
2022-08-26T10:43:21.416Z,8.15
2022-08-26T10:46:28.402Z,8.70
2022-08-26T10:49:30.156Z,9.18
2022-08-26T10:53:04.975Z,8.98
2022-08-26T10:56:18.710Z,8.77
2022-08-26T10:59:30.329Z,8.35
2022-08-26T11:02:48.817Z,7.93
2022-08-26T11:06:24.274Z,8.63
2022-08-26T11:09:46.828Z,8.48
2022-08-26T11:12:49.913Z,8.13
2022-08-26T11:15:54.541Z,8.85
2022-08-26T11:18:56.264Z,9.45
2022-08-26T11:22:11.670Z,7.22
2022-08-26T11:25:15.928Z,7.20
2022-08-26T11:28:34.589Z,6.88
2022-08-26T11:31:53.483Z,7.18
2022-08-26T11:34:59.120Z,8.23
2022-08-26T11:38:29.698Z,8.13
2022-08-26T11:41:34.154Z,7.72
2022-08-26T11:44:40.614Z,8.23
2022-08-26T11:47:42.530Z,8.32
2022-08-26T11:51:19.187Z,7.43
2022-08-26T11:54:30.701Z,8.75
2022-08-26T11:57:46.932Z,8.18
2022-08-26T12:00:54.366Z,8.40
2022-08-26T12:04:01.285Z,8.13
2022-08-26T12:07:04.745Z,8.13
2022-08-26T12:10:24.193Z,8.02
2022-08-26T12:13:31.262Z,7.85
2022-08-26T12:16:38.735Z,8.20
2022-08-26T12:19:40.629Z,8.52
2022-08-26T12:22:43.691Z,7.07
2022-08-26T12:25:52.072Z,6.65
2022-08-26T12:28:57.528Z,6.57
2022-08-26T12:32:18.219Z,6.85
2022-08-26T12:35:21.359Z,7.22
2022-08-26T12:38:26.764Z,6.82
2022-08-26T12:41:58.196Z,5.85
2022-08-26T12:45:01.615Z,7.93
2022-08-26T12:48:09.893Z,7.03
2022-08-26T12:51:34.717Z,7.65
2022-08-26T12:54:57.052Z,7.40
2022-08-26T12:58:18.513Z,6.37
2022-08-26T13:01:22.368Z,6.15
2022-08-26T13:04:35.488Z,7.10
2022-08-26T13:07:39.661Z,6.05
2022-08-26T13:11:00.394Z,6.00
2022-08-26T13:14:10.095Z,5.97
2022-08-26T13:17:11.791Z,6.72
2022-08-26T13:20:13.443Z,6.50
2022-08-26T13:23:15.546Z,7.10
2022-08-26T13:26:18.115Z,12.82
2022-08-26T13:29:19.982Z,7.88
2022-08-26T13:32:24.765Z,7.57
2022-08-26T13:35:31.484Z,6.35
2022-08-26T13:38:34.078Z,6.28
2022-08-26T13:41:36.636Z,6.47
2022-08-26T13:44:39.045Z,6.72
2022-08-26T13:47:40.708Z,6.33
2022-08-26T13:51:33.584Z,6.95
2022-08-26T13:54:35.471Z,6.13
2022-08-26T13:57:37.172Z,6.15
2022-08-26T14:00:40.098Z,6.10
2022-08-26T14:03:42.297Z,7.10
2022-08-26T14:06:44.535Z,6.50
2022-08-26T14:09:47.113Z,6.87
2022-08-26T14:12:48.779Z,6.67
2022-08-26T14:15:51.171Z,6.20
2022-08-26T14:18:53.901Z,6.43
2022-08-26T14:21:56.528Z,6.10
2022-08-26T14:24:58.344Z,6.37
2022-08-26T14:28:00.826Z,6.33
2022-08-26T14:31:03.608Z,7.27
2022-08-26T14:34:07.837Z,6.40
2022-08-26T14:37:13.514Z,6.17
2022-08-26T14:40:18.693Z,6.80
2022-08-26T14:43:20.517Z,6.03
2022-08-26T14:46:22.291Z,6.27
2022-08-26T14:49:25.138Z,6.30
2022-08-26T14:52:26.860Z,5.83
2022-08-26T14:55:30.623Z,5.37
2022-08-26T14:58:35.134Z,5.60
2022-08-26T15:01:37.073Z,5.30
2022-08-26T15:04:40.400Z,5.30
2022-08-26T15:07:44.928Z,5.70
2022-08-26T15:10:46.572Z,5.63
2022-08-26T15:13:50.490Z,6.27
2022-08-26T15:17:01.514Z,6.30
2022-08-26T15:20:05.286Z,6.13
2022-08-26T15:23:07.348Z,6.53
2022-08-26T15:26:11.534Z,5.97
2022-08-26T15:29:13.637Z,6.20
2022-08-26T15:32:15.344Z,6.40
2022-08-26T15:35:17.093Z,8.33
2022-08-26T15:38:18.784Z,6.10
2022-08-26T15:41:20.601Z,6.10
2022-08-26T15:44:22.984Z,5.63
2022-08-26T15:47:24.864Z,5.90
2022-08-26T15:50:26.558Z,6.40
2022-08-26T15:53:31.716Z,5.97
2022-08-26T15:56:35.356Z,6.23
2022-08-26T15:59:37.088Z,6.03
2022-08-26T16:02:38.743Z,5.80
2022-08-26T16:05:43.430Z,5.70
2022-08-26T16:08:45.742Z,11.03
2022-08-26T16:12:05.893Z,6.43
2022-08-26T16:15:08.368Z,8.10
2022-08-26T16:18:10.311Z,5.83
2022-08-26T16:21:20.921Z,6.40
2022-08-26T16:24:27.147Z,6.00
2022-08-26T16:27:34.099Z,5.70
2022-08-26T16:30:35.832Z,6.13
2022-08-26T16:33:37.850Z,6.17
2022-08-26T16:36:40.248Z,5.53
2022-08-26T16:39:45.121Z,6.17
2022-08-26T16:42:46.989Z,6.10
2022-08-26T16:45:50.740Z,5.90
2022-08-26T16:48:53.951Z,7.80
2022-08-26T16:51:55.704Z,7.20
2022-08-26T16:55:00.293Z,7.10
2022-08-26T16:58:02.405Z,6.73
2022-08-26T17:01:04.059Z,7.80
2022-08-26T17:04:05.760Z,7.50
2022-08-26T17:07:07.520Z,7.97
2022-08-26T17:10:09.359Z,8.27
2022-08-26T17:13:11.166Z,7.93
2022-08-26T17:16:17.802Z,7.97
2022-08-26T17:19:20.740Z,8.30
2022-08-26T17:22:22.426Z,8.43
2022-08-26T17:25:25.729Z,8.03
2022-08-26T17:28:27.573Z,7.40
2022-08-26T17:31:29.368Z,7.73
2022-08-26T17:34:31.208Z,8.00
2022-08-26T17:37:39.153Z,7.90
2022-08-26T17:40:40.833Z,10.07
2022-08-26T17:43:45.649Z,10.57
2022-08-26T17:46:47.473Z,9.57
2022-08-26T17:49:49.808Z,10.70
2022-08-26T17:52:51.640Z,16.40
2022-08-26T17:55:53.309Z,9.33
2022-08-26T17:58:58.069Z,8.13
2022-08-26T18:02:05.153Z,9.00
2022-08-26T18:05:08.251Z,8.97
2022-08-26T18:08:10.212Z,8.97
2022-08-26T18:11:18.119Z,8.80
2022-08-26T18:14:19.816Z,8.80
2022-08-26T18:17:21.474Z,8.20
2022-08-26T18:20:23.168Z,8.50
2022-08-26T18:23:25.058Z,8.10
2022-08-26T18:26:39.525Z,8.10
2022-08-26T18:29:45.550Z,8.30
2022-08-26T18:32:48.729Z,8.33
2022-08-26T18:35:50.377Z,7.77
2022-08-26T18:38:53.176Z,7.80
2022-08-26T18:41:55.327Z,7.50
2022-08-26T18:44:58.981Z,7.83
2022-08-26T18:48:01.985Z,7.20
2022-08-26T18:51:04.760Z,6.80
2022-08-26T18:54:07.670Z,7.23
2022-08-26T18:57:09.817Z,6.70
2022-08-26T19:00:15.406Z,6.10
2022-08-26T19:03:18.847Z,5.50
2022-08-26T19:06:21.919Z,5.23
2022-08-26T19:09:26.241Z,5.70
2022-08-26T19:12:29.488Z,5.17
2022-08-26T19:15:38.037Z,4.70
2022-08-26T19:18:40.329Z,5.00
2022-08-26T19:21:45.169Z,4.80
2022-08-26T19:24:47.233Z,4.07
2022-08-26T19:27:49.357Z,5.17
2022-08-26T19:30:53.224Z,6.40
2022-08-26T19:33:56.601Z,5.00
2022-08-26T19:36:58.832Z,5.20
2022-08-26T19:40:00.982Z,4.70
2022-08-26T19:43:03.393Z,4.50
2022-08-26T19:46:17.402Z,4.07
2022-08-26T19:49:19.619Z,4.10
2022-08-26T19:52:22.525Z,4.60
2022-08-26T19:55:32.209Z,3.87
2022-08-26T19:58:34.730Z,4.13
2022-08-26T20:01:36.854Z,4.10
2022-08-26T20:04:39.614Z,4.30
2022-08-26T20:07:52.367Z,4.80
2022-08-26T20:10:54.483Z,4.80
2022-08-26T20:13:57.076Z,4.80
2022-08-26T20:17:02.948Z,5.43
2022-08-26T20:20:32.779Z,6.53
2022-08-26T20:23:36.433Z,6.53
2022-08-26T20:26:39.366Z,7.53
2022-08-26T20:29:42.978Z,8.30
2022-08-26T20:32:45.069Z,8.40
2022-08-26T20:35:47.237Z,9.40
2022-08-26T20:38:50.127Z,10.63
2022-08-26T20:41:52.199Z,12.37
2022-08-26T20:44:55.115Z,12.80
2022-08-26T20:48:00.049Z,14.20
2022-08-26T20:51:02.261Z,13.37
2022-08-26T20:54:05.466Z,15.60
2022-08-26T21:00:52.465Z,16.20
2022-08-26T21:03:57.023Z,17.10
2022-08-26T21:07:01.944Z,16.37
2022-08-26T21:10:04.144Z,17.10
2022-08-26T21:13:06.364Z,16.73
2022-08-26T21:16:08.723Z,18.03
